Phillipsburg, MO (65722)

1:06 PM CST on February 22, 2017 (GMT -0600)
S. Newport, Conway | | Change Station

Elev 1394 ft 37.50 °N, 92.83 °W | Updated 30 seconds ago

Partly Cloudy
Partly Cloudy
72.1 °F
Feels Like 76 °F
N
3.8
Wind Variable Wind from West
Gusts 9.8 mph

Today
High -- | Low -- °F
--% Chance of Precip.
Yesterday
High -- | Low -- °F
Precip. -- in
Pressure 29.80 in
Visibility 10.0 miles
Clouds Scattered Clouds 1200 ft
Scattered Clouds 23000 ft
Heat Index 76 °F
Dew Point 58 °F
Humidity 61%
Rainfall 0.00 in
Snow Depth Not available.
6:51 AM 5:58 PM
Waning Crescent, 15% visible
METAR KTBN 221858Z AUTO 24005KT 10SM SCT012 SCT230 16/16 A2980 RMK AO2 SLP090 T01630161 PNO $
Pressure 29.80 in
Visibility 10.0 miles
Clouds Scattered Clouds 1200 ft
Scattered Clouds 23000 ft
Heat Index 76 °F
Dew Point 58 °F
Humidity 61%
Rainfall 0.00 in
Snow Depth Not available.
6:51 AM 5:58 PM
Waning Crescent, 15% visible
METAR KTBN 221858Z AUTO 24005KT 10SM SCT012 SCT230 16/16 A2980 RMK AO2 SLP090 T01630161 PNO $

Get Your Daily Forecast Email!

Thanks for signing up!

Be on the lookout for a verification email in your inbox.

You'll start receiving the daily forecast at 8 AM.

×

10-Day Weather Forecast

Almanac

Astronomy

Feb. 22, 2017 Rise Set
Actual Time
Civil Twilight
Nautical Twilight
Astronomical Twilight
Moon
Length of Visible Light
Length of Day
Tomorrow will be .
, % of the Moon is Illuminated

Today's Extremes

State Highs State Lows

Community

WunderPhotos

Upload Photos

1,962,540 photos uploaded!

WunderBlog® & News

Nearby

Air Quality

  Air Quality AQ Index Pollutant
Not available.

Snow Depth

Station Depth Elevation

Earthquake Activity

City Distance Mag. Time & Date
Minimum magnitude displayed is 2.5.

Coastal Water Temperatures

Place Temperature

Stations

Nearby Weather Stations

Station Location Temp. Windchill Dew Point Humidity Wind Precip. Elev Updated Type
                   

Watches & Warnings

There are currently no watches in effect.